Hanjin Ottawa — DANM — position and weather

sailwx.info

Track history (hours):
 
Tides and Currents Weather Stations Pressure Air Temp Water Temp Dewpoint Dewpoint Depression Visibility Wind Speed Wind Dir Waves Ship Positions

Hanjin Ottawa

Last reported at 2015-Jul-02 19:31 UTC. Time now 2015-Jul-05 02:40 UTC.
Position N 34°47' E 128°51'.

Length 278.8 m; beam 40.3 m; draft 14 m.

Type: Ship (hazmat cat A). MMSI: 211378360.

Date/timePositionNaut miles runAvg speedWind from/ knotsBaromVisibWave heightAir tempDewpointWater temp
2015-Jul-02 19:31N 34°47' E 128°51'3812.6
2015-Jul-02 16:32N 34°10' E 128°42'3414.9
2015-Jul-02 14:15N 33°37' E 128°31'54611.1
2015-Jun-30 13:11N 34°38' E 139°26'1014.0
2015-Jun-30 12:28N 34°45' E 139°35'1415.5
2015-Jun-30 11:34N 34°58' E 139°40'1515.1
2015-Jun-30 10:34N 35°13' E 139°46'1312.5
2015-Jun-30 09:33N 35°25' E 139°43'1010.5
2015-Jun-30 08:33N 35°35' E 139°48'2 1.9
2015-Jun-30 07:32N 35°37' E 139°47'0 0.0
2015-Jun-30 06:32N 35°37' E 139°47'0 0.0
2015-Jun-30 05:31N 35°37' E 139°47'0 0.0
2015-Jun-30 04:31N 35°37' E 139°47'0 0.0
2015-Jun-30 03:28N 35°37' E 139°47'0 0.0
2015-Jun-30 02:30N 35°37' E 139°47'0 0.0
2015-Jun-30 01:30N 35°37' E 139°47'0 0.3
2015-Jun-30 00:33N 35°36' E 139°47'9 8.9
2015-Jun-29 23:33N 35°28' E 139°51'1111.4
2015-Jun-29 22:33N 35°17' E 139°45'1110.6
2015-Jun-29 21:33N 35°07' E 139°46'1211.8
2015-Jun-29 20:33N 34°56' E 139°40'1413.4
2015-Jun-29 19:30N 34°50' E 139°56'1414.9
2015-Jun-29 18:33N 34°55' E 140°12'1515.1
2015-Jun-29 17:33N 35°02' E 140°28'7714.1
2015-Jun-29 12:05N 35°51' E 141°40'  
2015-Jun-24 00:00N 53°48' E 177°18'   360 / 81021.0 0.5 0.5 6.5 5.0
Track history (hours):
 
Tides and Currents Weather Stations Pressure Air Temp Water Temp Dewpoint Dewpoint Depression Visibility Wind Speed Wind Dir Waves Ship Positions

Hanjin Ottawa

Last reported at 2015-Jul-02 19:31 UTC. Time now 2015-Jul-05 02:40 UTC.
Position N 34°47' E 128°51'.

Length 278.8 m; beam 40.3 m; draft 14 m.

Type: Ship (hazmat cat A). MMSI: 211378360.

Date/timePositionNaut miles runAvg speedWind from/ knotsBaromVisibWave heightAir tempDewpointWater temp
2015-Jul-02 19:31N 34°47' E 128°51'3812.6
2015-Jul-02 16:32N 34°10' E 128°42'3414.9
2015-Jul-02 14:15N 33°37' E 128°31'54611.1
2015-Jun-30 13:11N 34°38' E 139°26'1014.0
2015-Jun-30 12:28N 34°45' E 139°35'1415.5
2015-Jun-30 11:34N 34°58' E 139°40'1515.1
2015-Jun-30 10:34N 35°13' E 139°46'1312.5
2015-Jun-30 09:33N 35°25' E 139°43'1010.5
2015-Jun-30 08:33N 35°35' E 139°48'2 1.9
2015-Jun-30 07:32N 35°37' E 139°47'0 0.0
2015-Jun-30 06:32N 35°37' E 139°47'0 0.0
2015-Jun-30 05:31N 35°37' E 139°47'0 0.0
2015-Jun-30 04:31N 35°37' E 139°47'0 0.0
2015-Jun-30 03:28N 35°37' E 139°47'0 0.0
2015-Jun-30 02:30N 35°37' E 139°47'0 0.0
2015-Jun-30 01:30N 35°37' E 139°47'0 0.3
2015-Jun-30 00:33N 35°36' E 139°47'9 8.9
2015-Jun-29 23:33N 35°28' E 139°51'1111.4
2015-Jun-29 22:33N 35°17' E 139°45'1110.6
2015-Jun-29 21:33N 35°07' E 139°46'1211.8
2015-Jun-29 20:33N 34°56' E 139°40'1413.4
2015-Jun-29 19:30N 34°50' E 139°56'1414.9
2015-Jun-29 18:33N 34°55' E 140°12'1515.1
2015-Jun-29 17:33N 35°02' E 140°28'7714.1
2015-Jun-29 12:05N 35°51' E 141°40'  
2015-Jun-24 00:00N 53°48' E 177°18'   360 / 81021.0 0.5 0.5 6.5 5.0

Dump ship's entire track history